sensor_id;sensor_type;location;lat;lon;timestamp;pressure;altitude;pressure_sealevel;temperature;humidity
29045;BME280;16133;49.486;12.176;2022-08-03T00:02:24;97505.25;;;15.68;100.00
29045;BME280;16133;49.486;12.176;2022-08-03T00:04:50;97503.22;;;15.64;100.00
29045;BME280;16133;49.486;12.176;2022-08-03T00:07:15;97505.47;;;15.60;100.00
29045;BME280;16133;49.486;12.176;2022-08-03T00:09:41;97497.88;;;15.57;100.00
29045;BME280;16133;49.486;12.176;2022-08-03T00:12:07;97490.47;;;15.53;100.00
29045;BME280;16133;49.486;12.176;2022-08-03T00:14:32;97495.03;;;15.52;100.00
29045;BME280;16133;49.486;12.176;2022-08-03T00:16:58;97499.91;;;15.49;100.00
29045;BME280;16133;49.486;12.176;2022-08-03T00:19:23;97485.56;;;15.37;100.00
29045;BME280;16133;49.486;12.176;2022-08-03T00:21:49;97495.59;;;15.41;100.00
29045;BME280;16133;49.486;12.176;2022-08-03T00:24:14;97498.72;;;15.38;100.00
29045;BME280;16133;49.486;12.176;2022-08-03T00:26:39;97497.47;;;15.34;100.00
29045;BME280;16133;49.486;12.176;2022-08-03T00:29:05;97495.84;;;15.33;100.00
29045;BME280;16133;49.486;12.176;2022-08-03T00:31:30;97500.38;;;15.32;100.00
29045;BME280;16133;49.486;12.176;2022-08-03T00:33:55;97497.28;;;15.29;100.00
29045;BME280;16133;49.486;12.176;2022-08-03T00:36:21;97492.34;;;15.26;100.00
29045;BME280;16133;49.486;12.176;2022-08-03T00:38:46;97492.75;;;15.23;100.00
29045;BME280;16133;49.486;12.176;2022-08-03T00:41:11;97496.44;;;15.22;100.00
29045;BME280;16133;49.486;12.176;2022-08-03T00:43:37;97490.69;;;15.18;100.00
29045;BME280;16133;49.486;12.176;2022-08-03T00:46:02;97492.34;;;15.13;100.00
29045;BME280;16133;49.486;12.176;2022-08-03T00:48:27;97492.78;;;15.16;100.00
29045;BME280;16133;49.486;12.176;2022-08-03T00:50:53;97499.13;;;15.15;100.00
29045;BME280;16133;49.486;12.176;2022-08-03T00:53:19;97500.97;;;15.15;100.00
29045;BME280;16133;49.486;12.176;2022-08-03T00:55:44;97493.38;;;15.12;100.00
29045;BME280;16133;49.486;12.176;2022-08-03T00:58:10;97493.56;;;15.10;100.00
29045;BME280;16133;49.486;12.176;2022-08-03T01:00:37;97501.59;;;15.10;100.00
29045;BME280;16133;49.486;12.176;2022-08-03T01:03:04;97499.16;;;15.09;100.00
29045;BME280;16133;49.486;12.176;2022-08-03T01:05:59;97501.19;;;15.07;100.00
29045;BME280;16133;49.486;12.176;2022-08-03T01:08:30;97503.44;;;15.03;100.00
29045;BME280;16133;49.486;12.176;2022-08-03T01:11:11;97511.06;;;15.00;100.00
29045;BME280;16133;49.486;12.176;2022-08-03T01:16:30;97505.50;;;14.88;100.00
29045;BME280;16133;49.486;12.176;2022-08-03T01:21:43;97508.78;;;14.83;100.00
29045;BME280;16133;49.486;12.176;2022-08-03T01:30:08;97500.34;;;14.73;100.00
29045;BME280;16133;49.486;12.176;2022-08-03T01:32:41;97500.34;;;14.73;100.00
29045;BME280;16133;49.486;12.176;2022-08-03T01:35:14;97498.69;;;14.72;100.00
29045;BME280;16133;49.486;12.176;2022-08-03T01:37:53;97500.94;;;14.69;100.00
29045;BME280;16133;49.486;12.176;2022-08-03T01:40:21;97502.38;;;14.65;100.00
29045;BME280;16133;49.486;12.176;2022-08-03T01:42:49;97496.63;;;14.61;100.00
29045;BME280;16133;49.486;12.176;2022-08-03T01:45:15;97495.19;;;14.59;100.00
29045;BME280;16133;49.486;12.176;2022-08-03T01:47:44;97493.75;;;14.56;100.00
29045;BME280;16133;49.486;12.176;2022-08-03T01:50:11;97495.19;;;14.52;100.00
29045;BME280;16133;49.486;12.176;2022-08-03T01:52:43;97493.13;;;14.48;100.00
29045;BME280;16133;49.486;12.176;2022-08-03T01:55:10;97489.81;;;14.46;100.00
29045;BME280;16133;49.486;12.176;2022-08-03T01:57:38;97495.78;;;14.41;100.00
29045;BME280;16133;49.486;12.176;2022-08-03T02:00:05;97493.47;;;14.38;100.00
29045;BME280;16133;49.486;12.176;2022-08-03T02:02:34;97485.88;;;14.35;100.00
29045;BME280;16133;49.486;12.176;2022-08-03T02:05:03;97491.38;;;14.33;100.00
29045;BME280;16133;49.486;12.176;2022-08-03T02:07:30;97492.22;;;14.34;100.00
29045;BME280;16133;49.486;12.176;2022-08-03T02:09:57;97493.25;;;14.33;100.00
29045;BME280;16133;49.486;12.176;2022-08-03T02:12:27;97487.28;;;14.31;100.00
29045;BME280;16133;49.486;12.176;2022-08-03T02:14:54;97479.69;;;14.28;100.00
29045;BME280;16133;49.486;12.176;2022-08-03T02:17:21;97480.69;;;14.27;100.00
29045;BME280;16133;49.486;12.176;2022-08-03T02:19:50;97475.75;;;14.24;100.00
29045;BME280;16133;49.486;12.176;2022-08-03T02:22:16;97478.63;;;14.22;100.00
29045;BME280;16133;49.486;12.176;2022-08-03T02:24:42;97469.81;;;14.22;100.00
29045;BME280;16133;49.486;12.176;2022-08-03T02:27:19;97469.19;;;14.20;100.00
29045;BME280;16133;49.486;12.176;2022-08-03T02:29:48;97472.88;;;14.19;100.00
29045;BME280;16133;49.486;12.176;2022-08-03T02:32:19;97475.53;;;14.19;100.00
29045;BME280;16133;49.486;12.176;2022-08-03T02:34:46;97479.63;;;14.15;100.00
29045;BME280;16133;49.486;12.176;2022-08-03T02:37:17;97471.41;;;14.10;100.00
29045;BME280;16133;49.486;12.176;2022-08-03T02:39:43;97468.31;;;14.06;100.00
29045;BME280;16133;49.486;12.176;2022-08-03T02:42:10;97471.38;;;14.03;100.00
29045;BME280;16133;49.486;12.176;2022-08-03T02:44:39;97473.63;;;14.00;100.00
29045;BME280;16133;49.486;12.176;2022-08-03T02:47:09;97470.75;;;13.95;100.00
29045;BME280;16133;49.486;12.176;2022-08-03T02:49:36;97468.66;;;13.90;100.00
29045;BME280;16133;49.486;12.176;2022-08-03T02:52:03;97465.56;;;13.86;100.00
29045;BME280;16133;49.486;12.176;2022-08-03T02:54:34;97462.91;;;13.86;100.00
29045;BME280;16133;49.486;12.176;2022-08-03T02:57:01;97455.09;;;13.85;100.00
29045;BME280;16133;49.486;12.176;2022-08-03T02:59:28;97467.81;;;13.83;100.00
29045;BME280;16133;49.486;12.176;2022-08-03T03:01:56;97462.84;;;13.80;100.00
29045;BME280;16133;49.486;12.176;2022-08-03T03:04:25;97465.75;;;13.78;100.00
29045;BME280;16133;49.486;12.176;2022-08-03T03:06:51;97467.78;;;13.76;100.00
29045;BME280;16133;49.486;12.176;2022-08-03T03:09:17;97469.00;;;13.74;100.00
29045;BME280;16133;49.486;12.176;2022-08-03T03:11:44;97457.72;;;13.72;100.00
29045;BME280;16133;49.486;12.176;2022-08-03T03:14:11;97473.25;;;13.68;100.00
29045;BME280;16133;49.486;12.176;2022-08-03T03:16:38;97471.81;;;13.66;100.00
29045;BME280;16133;49.486;12.176;2022-08-03T03:19:06;97467.91;;;13.62;100.00
29045;BME280;16133;49.486;12.176;2022-08-03T03:21:32;97469.13;;;13.59;100.00
29045;BME280;16133;49.486;12.176;2022-08-03T03:24:00;97481.81;;;13.57;100.00
29045;BME280;16133;49.486;12.176;2022-08-03T03:26:26;97472.38;;;13.55;100.00
29045;BME280;16133;49.486;12.176;2022-08-03T03:28:52;97473.38;;;13.54;100.00
29045;BME280;16133;49.486;12.176;2022-08-03T03:31:18;97471.13;;;13.51;100.00
29045;BME280;16133;49.486;12.176;2022-08-03T03:33:43;97471.31;;;13.49;100.00
29045;BME280;16133;49.486;12.176;2022-08-03T03:36:09;97472.75;;;13.45;100.00
29045;BME280;16133;49.486;12.176;2022-08-03T03:38:34;97476.03;;;13.47;100.00
29045;BME280;16133;49.486;12.176;2022-08-03T03:41:02;97471.53;;;13.48;100.00
29045;BME280;16133;49.486;12.176;2022-08-03T03:43:28;97468.03;;;13.47;100.00
29045;BME280;16133;49.486;12.176;2022-08-03T03:45:54;97472.13;;;13.50;100.00
29045;BME280;16133;49.486;12.176;2022-08-03T03:48:20;97469.69;;;13.48;100.00
29045;BME280;16133;49.486;12.176;2022-08-03T03:50:46;97475.03;;;13.48;100.00
29045;BME280;16133;49.486;12.176;2022-08-03T03:53:14;97470.50;;;13.49;100.00
29045;BME280;16133;49.486;12.176;2022-08-03T03:55:40;97468.47;;;13.51;100.00
29045;BME280;16133;49.486;12.176;2022-08-03T03:58:06;97472.78;;;13.52;100.00
29045;BME280;16133;49.486;12.176;2022-08-03T04:00:32;97474.47;;;13.59;100.00
29045;BME280;16133;49.486;12.176;2022-08-03T04:02:58;97462.38;;;13.63;100.00
29045;BME280;16133;49.486;12.176;2022-08-03T04:05:23;97462.59;;;13.68;100.00
29045;BME280;16133;49.486;12.176;2022-08-03T04:08:15;97463.66;;;13.74;100.00
29045;BME280;16133;49.486;12.176;2022-08-03T04:11:19;97458.56;;;13.79;100.00
29045;BME280;16133;49.486;12.176;2022-08-03T04:13:55;97459.00;;;13.82;100.00
29045;BME280;16133;49.486;12.176;2022-08-03T04:16:23;97468.03;;;13.88;100.00
29045;BME280;16133;49.486;12.176;2022-08-03T04:18:54;97469.09;;;13.94;100.00
29045;BME280;16133;49.486;12.176;2022-08-03T04:21:21;97470.34;;;13.98;100.00
29045;BME280;16133;49.486;12.176;2022-08-03T04:23:50;97484.09;;;14.01;100.00
29045;BME280;16133;49.486;12.176;2022-08-03T04:26:19;97487.00;;;14.06;100.00
29045;BME280;16133;49.486;12.176;2022-08-03T04:28:46;97493.78;;;14.09;100.00
29045;BME280;16133;49.486;12.176;2022-08-03T04:31:13;97491.34;;;14.14;100.00
29045;BME280;16133;49.486;12.176;2022-08-03T04:33:42;97491.34;;;14.20;100.00
29045;BME280;16133;49.486;12.176;2022-08-03T04:36:11;97490.75;;;14.25;100.00
29045;BME280;16133;49.486;12.176;2022-08-03T04:39:03;97502.31;;;14.39;100.00
29045;BME280;16133;49.486;12.176;2022-08-03T04:41:29;97491.88;;;14.50;100.00
29045;BME280;16133;49.486;12.176;2022-08-03T04:43:57;97503.81;;;14.61;100.00
29045;BME280;16133;49.486;12.176;2022-08-03T04:46:27;97509.59;;;14.71;100.00
29045;BME280;16133;49.486;12.176;2022-08-03T04:48:54;97504.66;;;14.81;100.00
29045;BME280;16133;49.486;12.176;2022-08-03T04:51:20;97511.47;;;14.90;100.00
29045;BME280;16133;49.486;12.176;2022-08-03T04:53:46;97520.53;;;15.02;100.00
29045;BME280;16133;49.486;12.176;2022-08-03T04:56:14;97510.06;;;15.14;100.00
29045;BME280;16133;49.486;12.176;2022-08-03T04:58:40;97511.69;;;15.28;100.00
29045;BME280;16133;49.486;12.176;2022-08-03T05:01:05;97525.88;;;15.48;100.00
29045;BME280;16133;49.486;12.176;2022-08-03T05:03:30;97520.69;;;15.73;100.00
29045;BME280;16133;49.486;12.176;2022-08-03T05:05:56;97523.28;;;15.99;100.00
29045;BME280;16133;49.486;12.176;2022-08-03T05:08:21;97524.22;;;16.31;100.00
29045;BME280;16133;49.486;12.176;2022-08-03T05:10:47;97537.84;;;16.67;100.00
29045;BME280;16133;49.486;12.176;2022-08-03T05:13:12;97535.69;;;17.14;100.00
29045;BME280;16133;49.486;12.176;2022-08-03T05:15:39;97537.16;;;17.66;100.00
29045;BME280;16133;49.486;12.176;2022-08-03T05:18:05;97540.97;;;18.13;100.00
29045;BME280;16133;49.486;12.176;2022-08-03T05:20:30;97545.91;;;18.52;100.00
29045;BME280;16133;49.486;12.176;2022-08-03T05:22:56;97544.19;;;18.88;100.00
29045;BME280;16133;49.486;12.176;2022-08-03T05:25:22;97541.72;;;19.16;100.00
29045;BME280;16133;49.486;12.176;2022-08-03T05:27:48;97546.53;;;19.37;97.44
29045;BME280;16133;49.486;12.176;2022-08-03T05:30:14;97541.06;;;19.55;93.68
29045;BME280;16133;49.486;12.176;2022-08-03T05:32:39;97537.22;;;19.75;93.17
29045;BME280;16133;49.486;12.176;2022-08-03T05:35:05;97541.34;;;19.89;91.68
29045;BME280;16133;49.486;12.176;2022-08-03T05:37:30;97540.59;;;20.05;90.42
29045;BME280;16133;49.486;12.176;2022-08-03T05:39:56;97543.63;;;20.20;89.79
29045;BME280;16133;49.486;12.176;2022-08-03T05:42:21;97541.75;;;20.32;90.18
29045;BME280;16133;49.486;12.176;2022-08-03T05:44:46;97541.72;;;20.44;88.89
29045;BME280;16133;49.486;12.176;2022-08-03T05:47:12;97539.25;;;20.54;86.53
29045;BME280;16133;49.486;12.176;2022-08-03T05:49:37;97546.00;;;20.68;86.24
29045;BME280;16133;49.486;12.176;2022-08-03T05:52:03;97540.16;;;20.88;84.54
29045;BME280;16133;49.486;12.176;2022-08-03T05:54:28;97544.97;;;21.14;83.07
29045;BME280;16133;49.486;12.176;2022-08-03T05:56:54;97547.13;;;21.62;81.91
29045;BME280;16133;49.486;12.176;2022-08-03T05:59:19;97545.94;;;22.08;80.11
29045;BME280;16133;49.486;12.176;2022-08-03T06:01:46;97540.06;;;22.55;77.42
29045;BME280;16133;49.486;12.176;2022-08-03T06:04:11;97548.53;;;23.07;75.25
29045;BME280;16133;49.486;12.176;2022-08-03T06:06:36;97547.63;;;23.55;72.72
29045;BME280;16133;49.486;12.176;2022-08-03T06:09:02;97544.94;;;23.97;70.02
29045;BME280;16133;49.486;12.176;2022-08-03T06:11:27;97549.94;;;24.15;67.58
29045;BME280;16133;49.486;12.176;2022-08-03T06:13:52;97553.84;;;24.29;67.28
29045;BME280;16133;49.486;12.176;2022-08-03T06:16:18;97548.47;;;24.39;66.49
29045;BME280;16133;49.486;12.176;2022-08-03T06:18:43;97556.34;;;24.41;65.82
29045;BME280;16133;49.486;12.176;2022-08-03T06:21:08;97548.13;;;24.31;65.87
29045;BME280;16133;49.486;12.176;2022-08-03T06:23:34;97544.06;;;24.28;67.07
29045;BME280;16133;49.486;12.176;2022-08-03T06:26:00;97547.28;;;24.20;67.45
29045;BME280;16133;49.486;12.176;2022-08-03T06:28:25;97551.81;;;24.09;67.42
29045;BME280;16133;49.486;12.176;2022-08-03T06:30:51;97546.63;;;24.03;67.36
29045;BME280;16133;49.486;12.176;2022-08-03T06:33:16;97550.13;;;23.98;68.15
29045;BME280;16133;49.486;12.176;2022-08-03T06:35:42;97551.19;;;23.97;68.03
29045;BME280;16133;49.486;12.176;2022-08-03T06:38:07;97551.44;;;23.96;68.07
29045;BME280;16133;49.486;12.176;2022-08-03T06:40:36;97552.81;;;23.98;68.66
29045;BME280;16133;49.486;12.176;2022-08-03T06:43:04;97552.53;;;24.00;68.06
29045;BME280;16133;49.486;12.176;2022-08-03T06:45:31;97547.72;;;24.07;69.12
29045;BME280;16133;49.486;12.176;2022-08-03T06:48:01;97548.03;;;24.10;68.37
29045;BME280;16133;49.486;12.176;2022-08-03T06:50:27;97548.34;;;24.14;67.77
29045;BME280;16133;49.486;12.176;2022-08-03T06:52:52;97557.31;;;24.19;68.43
29045;BME280;16133;49.486;12.176;2022-08-03T06:55:18;97556.81;;;24.27;68.27
29045;BME280;16133;49.486;12.176;2022-08-03T06:57:43;97556.31;;;24.36;67.73
29045;BME280;16133;49.486;12.176;2022-08-03T07:00:09;97560.66;;;24.42;66.99
29045;BME280;16133;49.486;12.176;2022-08-03T07:02:36;97554.50;;;24.51;67.58
29045;BME280;16133;49.486;12.176;2022-08-03T07:05:01;97556.41;;;24.61;67.16
29045;BME280;16133;49.486;12.176;2022-08-03T07:07:26;97558.09;;;24.67;66.73
29045;BME280;16133;49.486;12.176;2022-08-03T07:09:52;97550.25;;;24.75;66.12
29045;BME280;16133;49.486;12.176;2022-08-03T07:12:17;97554.34;;;24.83;65.81
29045;BME280;16133;49.486;12.176;2022-08-03T07:14:43;97557.38;;;24.92;65.20
29045;BME280;16133;49.486;12.176;2022-08-03T07:17:08;97550.06;;;24.97;64.77
29045;BME280;16133;49.486;12.176;2022-08-03T07:19:34;97553.34;;;25.09;65.08
29045;BME280;16133;49.486;12.176;2022-08-03T07:21:59;97545.22;;;25.19;64.47
29045;BME280;16133;49.486;12.176;2022-08-03T07:24:24;97554.44;;;25.34;63.11
29045;BME280;16133;49.486;12.176;2022-08-03T07:26:50;97541.44;;;25.41;62.88
29045;BME280;16133;49.486;12.176;2022-08-03T07:29:15;97536.56;;;25.48;63.09
29045;BME280;16133;49.486;12.176;2022-08-03T07:31:41;97542.81;;;25.58;62.38
29045;BME280;16133;49.486;12.176;2022-08-03T07:34:06;97541.19;;;25.62;61.87
29045;BME280;16133;49.486;12.176;2022-08-03T07:36:32;97542.00;;;25.73;61.75
29045;BME280;16133;49.486;12.176;2022-08-03T07:38:57;97544.72;;;25.83;61.07
29045;BME280;16133;49.486;12.176;2022-08-03T07:41:23;97542.28;;;25.87;60.90
29045;BME280;16133;49.486;12.176;2022-08-03T07:43:48;97533.81;;;25.93;60.07
29045;BME280;16133;49.486;12.176;2022-08-03T07:46:13;97540.06;;;26.09;59.96
29045;BME280;16133;49.486;12.176;2022-08-03T07:48:39;97533.78;;;26.24;60.65
29045;BME280;16133;49.486;12.176;2022-08-03T07:51:05;97538.66;;;26.27;58.75
29045;BME280;16133;49.486;12.176;2022-08-03T07:53:30;97544.88;;;26.37;58.81
29045;BME280;16133;49.486;12.176;2022-08-03T07:55:56;97535.88;;;26.42;58.89
29045;BME280;16133;49.486;12.176;2022-08-03T07:58:21;97541.31;;;26.52;57.89
29045;BME280;16133;49.486;12.176;2022-08-03T08:00:48;97540.25;;;26.48;57.48
29045;BME280;16133;49.486;12.176;2022-08-03T08:03:15;97539.38;;;26.52;58.29
29045;BME280;16133;49.486;12.176;2022-08-03T08:05:40;97532.03;;;26.58;58.38
29045;BME280;16133;49.486;12.176;2022-08-03T08:08:06;97535.28;;;26.60;58.36
29045;BME280;16133;49.486;12.176;2022-08-03T08:10:32;97535.25;;;26.65;56.81
29045;BME280;16133;49.486;12.176;2022-08-03T08:12:58;97535.25;;;26.65;57.63
29045;BME280;16133;49.486;12.176;2022-08-03T08:15:24;97530.88;;;26.64;57.33
29045;BME280;16133;49.486;12.176;2022-08-03T08:17:54;97533.09;;;26.67;57.00
29045;BME280;16133;49.486;12.176;2022-08-03T08:20:26;97537.41;;;26.68;57.27
29045;BME280;16133;49.486;12.176;2022-08-03T08:22:54;97526.81;;;26.67;57.53
29045;BME280;16133;49.486;12.176;2022-08-03T08:25:20;97532.00;;;26.63;56.92
29045;BME280;16133;49.486;12.176;2022-08-03T08:27:47;97529.81;;;26.65;56.42
29045;BME280;16133;49.486;12.176;2022-08-03T08:30:16;97522.78;;;26.59;56.21
29045;BME280;16133;49.486;12.176;2022-08-03T08:32:43;97528.97;;;26.70;56.78
29045;BME280;16133;49.486;12.176;2022-08-03T08:35:09;97526.81;;;26.67;56.74
29045;BME280;16133;49.486;12.176;2022-08-03T08:37:34;97526.53;;;26.68;55.78
29045;BME280;16133;49.486;12.176;2022-08-03T08:40:00;97521.94;;;26.63;55.26
29045;BME280;16133;49.486;12.176;2022-08-03T08:42:25;97525.44;;;26.64;55.14
29045;BME280;16133;49.486;12.176;2022-08-03T08:44:51;97523.50;;;26.75;55.90
29045;BME280;16133;49.486;12.176;2022-08-03T08:47:23;97522.13;;;26.77;54.73
29045;BME280;16133;49.486;12.176;2022-08-03T08:49:51;97524.03;;;26.77;54.76
29045;BME280;16133;49.486;12.176;2022-08-03T08:52:23;97519.13;;;26.84;55.45
29045;BME280;16133;49.486;12.176;2022-08-03T08:54:49;97523.75;;;26.78;54.58
29045;BME280;16133;49.486;12.176;2022-08-03T08:57:15;97516.41;;;26.79;54.96
29045;BME280;16133;49.486;12.176;2022-08-03T08:59:42;97518.84;;;26.85;54.05
29045;BME280;16133;49.486;12.176;2022-08-03T09:02:08;97522.09;;;26.87;54.48
29045;BME280;16133;49.486;12.176;2022-08-03T09:04:37;97511.19;;;26.87;54.73
29045;BME280;16133;49.486;12.176;2022-08-03T09:07:03;97515.81;;;26.92;54.32
29045;BME280;16133;49.486;12.176;2022-08-03T09:09:30;97509.84;;;26.90;53.77
29045;BME280;16133;49.486;12.176;2022-08-03T09:11:55;97509.03;;;26.89;54.14
29045;BME280;16133;49.486;12.176;2022-08-03T09:14:20;97510.66;;;26.90;53.16
29045;BME280;16133;49.486;12.176;2022-08-03T09:17:06;97505.72;;;26.92;52.10
29045;BME280;16133;49.486;12.176;2022-08-03T09:19:34;97498.63;;;26.96;52.41
29045;BME280;16133;49.486;12.176;2022-08-03T09:22:10;97501.34;;;27.01;51.87
29045;BME280;16133;49.486;12.176;2022-08-03T09:24:37;97502.34;;;27.10;50.89
29045;BME280;16133;49.486;12.176;2022-08-03T09:27:10;97506.59;;;27.27;51.01
29045;BME280;16133;49.486;12.176;2022-08-03T09:29:37;97500.28;;;27.31;49.77
29045;BME280;16133;49.486;12.176;2022-08-03T09:32:03;97498.88;;;27.39;49.44
29045;BME280;16133;49.486;12.176;2022-08-03T09:34:29;97498.75;;;27.54;49.99
29045;BME280;16133;49.486;12.176;2022-08-03T09:36:55;97499.59;;;27.54;49.41
29045;BME280;16133;49.486;12.176;2022-08-03T09:39:24;97494.38;;;27.58;48.85
29045;BME280;16133;49.486;12.176;2022-08-03T09:42:23;97495.19;;;27.59;49.01
29045;BME280;16133;49.486;12.176;2022-08-03T09:44:50;97485.81;;;27.70;48.80
29045;BME280;16133;49.486;12.176;2022-08-03T09:47:26;97490.56;;;27.83;48.75
29045;BME280;16133;49.486;12.176;2022-08-03T09:49:57;97491.53;;;27.97;46.16
29045;BME280;16133;49.486;12.176;2022-08-03T09:54:58;97483.22;;;28.36;47.05
29045;BME280;16133;49.486;12.176;2022-08-03T09:57:26;97491.13;;;28.56;46.42
29045;BME280;16133;49.486;12.176;2022-08-03T09:59:56;97489.88;;;28.67;45.31
29045;BME280;16133;49.486;12.176;2022-08-03T10:02:30;97484.84;;;28.79;45.22
29045;BME280;16133;49.486;12.176;2022-08-03T10:04:55;97483.13;;;28.83;44.88
29045;BME280;16133;49.486;12.176;2022-08-03T10:07:24;97487.44;;;28.89;45.97
29045;BME280;16133;49.486;12.176;2022-08-03T10:10:07;97481.22;;;28.84;44.91
29045;BME280;16133;49.486;12.176;2022-08-03T10:12:35;97480.41;;;28.83;43.24
29045;BME280;16133;49.486;12.176;2022-08-03T10:15:01;97477.09;;;28.86;43.59
29045;BME280;16133;49.486;12.176;2022-08-03T10:17:27;97464.47;;;28.90;44.35
29045;BME280;16133;49.486;12.176;2022-08-03T10:19:52;97467.19;;;28.90;43.86
29045;BME280;16133;49.486;12.176;2022-08-03T10:22:20;97463.13;;;29.07;43.57
29045;BME280;16133;49.486;12.176;2022-08-03T10:24:52;97464.00;;;29.02;42.89
29045;BME280;16133;49.486;12.176;2022-08-03T10:27:19;97463.78;;;28.98;42.89
29045;BME280;16133;49.486;12.176;2022-08-03T10:29:50;97454.28;;;28.96;43.54
29045;BME280;16133;49.486;12.176;2022-08-03T10:32:48;97451.50;;;28.82;42.47
29045;BME280;16133;49.486;12.176;2022-08-03T10:35:19;97450.13;;;28.80;42.17
29045;BME280;16133;49.486;12.176;2022-08-03T10:40:22;97446.31;;;28.81;44.20
29045;BME280;16133;49.486;12.176;2022-08-03T10:42:50;97448.75;;;28.82;43.36
29045;BME280;16133;49.486;12.176;2022-08-03T10:45:20;97444.59;;;29.04;43.82
29045;BME280;16133;49.486;12.176;2022-08-03T10:47:48;97443.69;;;29.27;43.48
29045;BME280;16133;49.486;12.176;2022-08-03T10:50:15;97445.91;;;29.57;43.41
29045;BME280;16133;49.486;12.176;2022-08-03T10:52:58;97438.53;;;29.71;42.95
29045;BME280;16133;49.486;12.176;2022-08-03T11:01:04;97430.41;;;29.53;42.06
29045;BME280;16133;49.486;12.176;2022-08-03T11:03:32;97432.31;;;29.38;42.07
29045;BME280;16133;49.486;12.176;2022-08-03T11:06:18;97434.22;;;29.38;41.65
29045;BME280;16133;49.486;12.176;2022-08-03T11:08:46;97425.34;;;29.46;41.05
29045;BME280;16133;49.486;12.176;2022-08-03T11:16:30;97421.31;;;29.71;39.12
29045;BME280;16133;49.486;12.176;2022-08-03T11:19:00;97416.44;;;29.68;39.08
29045;BME280;16133;49.486;12.176;2022-08-03T11:27:16;97412.84;;;30.00;39.98
29045;BME280;16133;49.486;12.176;2022-08-03T11:40:37;97403.47;;;29.46;41.32
29045;BME280;16133;49.486;12.176;2022-08-03T11:50:58;97392.78;;;29.90;41.02
29045;BME280;16133;49.486;12.176;2022-08-03T11:53:24;97393.81;;;29.95;40.15
29045;BME280;16133;49.486;12.176;2022-08-03T11:55:49;97388.22;;;30.00;40.66
29045;BME280;16133;49.486;12.176;2022-08-03T11:58:19;97391.88;;;30.09;40.46
29045;BME280;16133;49.486;12.176;2022-08-03T12:00:45;97388.81;;;30.24;40.53
29045;BME280;16133;49.486;12.176;2022-08-03T12:03:15;97384.34;;;30.28;39.48
29045;BME280;16133;49.486;12.176;2022-08-03T12:05:50;97389.50;;;30.29;39.94
29045;BME280;16133;49.486;12.176;2022-08-03T12:08:18;97395.41;;;30.23;39.90
29045;BME280;16133;49.486;12.176;2022-08-03T12:10:49;97387.69;;;30.25;40.25
29045;BME280;16133;49.486;12.176;2022-08-03T12:13:15;97380.09;;;30.22;39.58
29045;BME280;16133;49.486;12.176;2022-08-03T12:15:41;97384.25;;;30.19;39.18
29045;BME280;16133;49.486;12.176;2022-08-03T12:18:15;97389.59;;;30.24;38.80
29045;BME280;16133;49.486;12.176;2022-08-03T12:20:42;97390.44;;;30.25;38.11
29045;BME280;16133;49.486;12.176;2022-08-03T12:23:08;97372.28;;;30.43;37.67
29045;BME280;16133;49.486;12.176;2022-08-03T12:25:34;97377.91;;;30.60;37.36
29045;BME280;16133;49.486;12.176;2022-08-03T12:28:11;97375.00;;;30.78;36.67
29045;BME280;16133;49.486;12.176;2022-08-03T12:30:38;97368.25;;;30.98;37.97
29045;BME280;16133;49.486;12.176;2022-08-03T12:36:18;97363.50;;;31.43;36.69
29045;BME280;16133;49.486;12.176;2022-08-03T12:38:53;97364.91;;;31.54;36.43
29045;BME280;16133;49.486;12.176;2022-08-03T12:41:32;97354.78;;;31.63;36.77
29045;BME280;16133;49.486;12.176;2022-08-03T12:43:59;97367.41;;;31.73;36.77
29045;BME280;16133;49.486;12.176;2022-08-03T12:46:33;97361.13;;;31.72;35.66
29045;BME280;16133;49.486;12.176;2022-08-03T12:51:28;97354.94;;;31.58;35.11
29045;BME280;16133;49.486;12.176;2022-08-03T12:53:55;97353.88;;;31.46;35.42
29045;BME280;16133;49.486;12.176;2022-08-03T12:56:21;97347.88;;;31.44;35.62
29045;BME280;16133;49.486;12.176;2022-08-03T12:58:47;97358.88;;;31.52;36.00
29045;BME280;16133;49.486;12.176;2022-08-03T13:01:12;97343.44;;;31.56;35.50
29045;BME280;16133;49.486;12.176;2022-08-03T13:03:47;97345.28;;;31.69;35.01
29045;BME280;16133;49.486;12.176;2022-08-03T13:06:15;97350.13;;;31.72;34.85
29045;BME280;16133;49.486;12.176;2022-08-03T13:08:41;97344.53;;;31.77;34.84
29045;BME280;16133;49.486;12.176;2022-08-03T13:11:36;97342.25;;;31.80;34.51
29045;BME280;16133;49.486;12.176;2022-08-03T13:14:02;97347.59;;;31.85;33.88
29045;BME280;16133;49.486;12.176;2022-08-03T13:16:27;97342.09;;;31.76;33.08
29045;BME280;16133;49.486;12.176;2022-08-03T13:18:52;97340.63;;;31.78;33.45
29045;BME280;16133;49.486;12.176;2022-08-03T13:21:19;97344.34;;;31.83;33.30
29045;BME280;16133;49.486;12.176;2022-08-03T13:23:45;97337.44;;;31.94;35.10
29045;BME280;16133;49.486;12.176;2022-08-03T13:26:11;97336.56;;;32.15;34.22
29045;BME280;16133;49.486;12.176;2022-08-03T13:28:37;97340.94;;;32.25;33.99
29045;BME280;16133;49.486;12.176;2022-08-03T13:31:03;97344.19;;;32.44;33.68
29045;BME280;16133;49.486;12.176;2022-08-03T13:33:29;97342.25;;;32.53;32.87
29045;BME280;16133;49.486;12.176;2022-08-03T13:35:54;97334.22;;;32.65;33.28
29045;BME280;16133;49.486;12.176;2022-08-03T13:38:20;97337.09;;;32.86;33.13
29045;BME280;16133;49.486;12.176;2022-08-03T13:40:45;97336.28;;;33.03;33.18
29045;BME280;16133;49.486;12.176;2022-08-03T13:43:11;97328.50;;;33.13;32.39
29045;BME280;16133;49.486;12.176;2022-08-03T13:45:36;97325.88;;;33.34;31.55
29045;BME280;16133;49.486;12.176;2022-08-03T13:48:02;97324.38;;;33.45;31.72